Time;durP1;ratioP1;P1;durP2;ratioP2;P2;SDS_P1;SDS_P2;PMS_P1;PMS_P2;Temp;Humidity;BMP_temperature;BMP_pressure;BME280_temperature;BME280_humidity;BME280_pressure;Samples;Min_cycle;Max_cycle;Signal;HPM_P1;HPM_P2
2023/12/21 00:00:20;;;;;;;3.63;3.33;;;;;;;;;;4973305;28;20215;-54
2023/12/21 00:02:46;;;;;;;3.87;3.57;;;;;;;;;;4973635;28;20745;-54
2023/12/21 00:05:12;;;;;;;4.40;4.00;;;;;;;;;;4973672;28;20293;-54
2023/12/21 00:07:38;;;;;;;4.13;3.80;;;;;;;;;;4973934;28;20227;-54
2023/12/21 00:10:04;;;;;;;3.90;3.60;;;;;;;;;;4973590;28;20662;-54
2023/12/21 00:12:31;;;;;;;4.03;3.73;;;;;;;;;;4973217;28;20232;-54
2023/12/21 00:14:57;;;;;;;3.80;3.50;;;;;;;;;;4973754;28;20688;-54
2023/12/21 00:17:24;;;;;;;4.00;3.70;;;;;;;;;;4973284;28;20230;-54
2023/12/21 00:19:50;;;;;;;4.57;4.17;;;;;;;;;;4973594;28;20262;-54
2023/12/21 00:22:17;;;;;;;4.00;3.60;;;;;;;;;;4973114;28;20636;-54
2023/12/21 00:24:42;;;;;;;3.87;3.57;;;;;;;;;;4973292;28;20624;-54
2023/12/21 00:27:08;;;;;;;3.60;3.30;;;;;;;;;;4973299;28;20290;-54
2023/12/21 00:29:34;;;;;;;4.20;3.87;;;;;;;;;;4973365;28;20261;-54
2023/12/21 00:32:00;;;;;;;4.07;3.77;;;;;;;;;;4973283;28;20204;-54
2023/12/21 00:34:28;;;;;;;4.73;3.50;;;;;;;;;;4973134;28;20230;-54
2023/12/21 00:36:54;;;;;;;3.70;3.40;;;;;;;;;;4972992;28;20599;-54
2023/12/21 00:39:20;;;;;;;3.77;3.47;;;;;;;;;;4973160;28;20202;-54
2023/12/21 00:41:46;;;;;;;4.17;3.87;;;;;;;;;;4973264;28;20203;-54
2023/12/21 00:44:12;;;;;;;3.77;3.47;;;;;;;;;;4973066;28;20228;-54
2023/12/21 00:46:38;;;;;;;3.97;3.67;;;;;;;;;;4973242;28;20213;-54
2023/12/21 00:49:04;;;;;;;4.47;4.17;;;;;;;;;;4972781;28;20670;-54
2023/12/21 00:51:31;;;;;;;3.90;3.60;;;;;;;;;;4972932;28;20207;-54
2023/12/21 00:53:57;;;;;;;4.10;3.80;;;;;;;;;;4973009;28;20213;-54
2023/12/21 00:56:23;;;;;;;4.27;3.87;;;;;;;;;;4972252;28;20281;-54
2023/12/21 00:58:49;;;;;;;4.63;4.23;;;;;;;;;;4972954;28;20199;-55
2023/12/21 01:01:15;;;;;;;4.10;3.70;;;;;;;;;;4970795;28;20211;-54
2023/12/21 01:03:41;;;;;;;4.17;3.87;;;;;;;;;;4971517;28;20205;-54
2023/12/21 01:06:07;;;;;;;4.20;3.80;;;;;;;;;;4973070;28;20586;-54
2023/12/21 01:08:34;;;;;;;4.60;4.20;;;;;;;;;;4972875;28;20195;-55
2023/12/21 01:11:00;;;;;;;4.20;3.80;;;;;;;;;;4973098;28;20209;-54
2023/12/21 01:13:26;;;;;;;4.10;3.80;;;;;;;;;;4972944;28;20205;-54
2023/12/21 01:15:52;;;;;;;4.30;3.90;;;;;;;;;;4973181;28;20195;-54
2023/12/21 01:18:18;;;;;;;4.27;3.97;;;;;;;;;;4972632;28;20239;-53
2023/12/21 01:20:44;;;;;;;4.60;4.07;;;;;;;;;;4972888;28;20238;-54
2023/12/21 01:23:10;;;;;;;4.87;4.40;;;;;;;;;;4972992;28;20700;-54
2023/12/21 01:25:37;;;;;;;4.53;4.13;;;;;;;;;;4972782;28;20207;-54
2023/12/21 01:28:04;;;;;;;5.53;4.83;;;;;;;;;;4972935;28;20321;-54
2023/12/21 01:30:29;;;;;;;5.90;4.30;;;;;;;;;;4972674;28;20570;-54
2023/12/21 01:32:55;;;;;;;4.90;4.40;;;;;;;;;;4972937;28;20737;-54
2023/12/21 01:35:21;;;;;;;4.17;3.80;;;;;;;;;;4972686;28;20210;-55
2023/12/21 01:37:47;;;;;;;4.90;4.50;;;;;;;;;;4972665;28;20261;-52
2023/12/21 01:40:14;;;;;;;4.90;4.40;;;;;;;;;;4972694;28;20203;-54
2023/12/21 01:42:41;;;;;;;4.50;4.20;;;;;;;;;;4972796;28;20262;-52
2023/12/21 01:45:08;;;;;;;4.87;4.43;;;;;;;;;;4972680;28;20195;-54
2023/12/21 01:47:34;;;;;;;4.07;3.77;;;;;;;;;;4972674;28;20282;-53
2023/12/21 01:50:00;;;;;;;4.60;4.20;;;;;;;;;;4972802;28;20298;-54
2023/12/21 01:52:26;;;;;;;4.27;3.87;;;;;;;;;;4972653;28;20571;-54
2023/12/21 01:54:53;;;;;;;5.10;4.60;;;;;;;;;;4972615;28;20199;-54
2023/12/21 01:57:19;;;;;;;5.67;4.53;;;;;;;;;;4972322;28;20663;-54
2023/12/21 01:59:47;;;;;;;4.83;4.33;;;;;;;;;;4972557;28;20215;-54
2023/12/21 02:02:13;;;;;;;5.97;5.10;;;;;;;;;;4970845;28;20206;-54
2023/12/21 02:04:39;;;;;;;8.20;5.97;;;;;;;;;;4967537;28;20199;-53
2023/12/21 02:07:05;;;;;;;6.03;5.43;;;;;;;;;;4970643;28;20206;-53
2023/12/21 02:09:31;;;;;;;5.63;5.13;;;;;;;;;;4974219;28;20257;-53
2023/12/21 02:11:57;;;;;;;5.40;4.90;;;;;;;;;;4972876;28;20203;-53
2023/12/21 02:14:22;;;;;;;5.87;5.27;;;;;;;;;;4970816;28;20573;-54
2023/12/21 02:16:55;;;;;;;6.17;5.43;;;;;;;;;;4967271;28;20237;-53
2023/12/21 02:19:21;;;;;;;5.50;5.00;;;;;;;;;;4970208;28;20741;-54
2023/12/21 02:21:48;;;;;;;5.73;5.23;;;;;;;;;;4972394;28;20199;-53
2023/12/21 02:24:15;;;;;;;8.53;5.70;;;;;;;;;;4969008;28;20250;-53
2023/12/21 02:26:42;;;;;;;8.30;5.67;;;;;;;;;;4971013;28;20286;-53
2023/12/21 02:29:08;;;;;;;6.47;5.70;;;;;;;;;;4972229;28;20227;-53
2023/12/21 02:31:34;;;;;;;6.40;5.13;;;;;;;;;;4968843;28;20732;-54
2023/12/21 02:34:00;;;;;;;5.93;5.17;;;;;;;;;;4965610;28;20773;-54
2023/12/21 02:36:26;;;;;;;6.10;5.10;;;;;;;;;;4967043;28;20196;-54
2023/12/21 02:38:52;;;;;;;6.93;5.20;;;;;;;;;;4967645;28;20194;-54
2023/12/21 02:41:19;;;;;;;5.67;5.03;;;;;;;;;;4972103;28;20661;-54
2023/12/21 02:43:45;;;;;;;6.17;5.57;;;;;;;;;;4965254;28;20203;-54
2023/12/21 02:46:11;;;;;;;7.53;6.43;;;;;;;;;;4962897;28;20198;-54
2023/12/21 02:48:37;;;;;;;6.40;4.80;;;;;;;;;;4965027;28;20659;-54
2023/12/21 02:51:03;;;;;;;7.10;5.60;;;;;;;;;;4965281;28;20207;-54
2023/12/21 02:53:29;;;;;;;5.97;5.23;;;;;;;;;;4966957;28;20619;-54
2023/12/21 02:55:55;;;;;;;6.77;5.90;;;;;;;;;;4966870;28;20202;-54
2023/12/21 02:58:23;;;;;;;6.63;5.63;;;;;;;;;;4964859;28;20227;-53
2023/12/21 03:00:49;;;;;;;6.50;5.30;;;;;;;;;;4963595;28;20262;-54
2023/12/21 03:06:19;;;;;;;8.37;5.80;;;;;;;;;;4965010;28;20197;-53
2023/12/21 03:08:45;;;;;;;8.70;5.03;;;;;;;;;;4963386;28;20203;-54
2023/12/21 03:11:11;;;;;;;7.67;4.97;;;;;;;;;;4963147;28;20297;-54
2023/12/21 03:13:38;;;;;;;5.47;4.50;;;;;;;;;;4961624;28;20543;-54
2023/12/21 03:16:05;;;;;;;6.53;5.13;;;;;;;;;;4964818;28;20202;-54
2023/12/21 03:18:31;;;;;;;5.63;5.13;;;;;;;;;;4960488;28;20666;-54
2023/12/21 03:20:57;;;;;;;6.00;4.97;;;;;;;;;;4963184;28;20294;-54
2023/12/21 03:23:23;;;;;;;7.47;5.00;;;;;;;;;;4964640;28;20697;-54
2023/12/21 03:25:49;;;;;;;7.97;5.13;;;;;;;;;;4964727;28;20203;-54
2023/12/21 03:28:15;;;;;;;7.70;5.07;;;;;;;;;;4962676;28;20238;-54
2023/12/21 03:30:43;;;;;;;5.40;4.90;;;;;;;;;;4962835;28;20227;-54
2023/12/21 03:33:09;;;;;;;5.40;4.90;;;;;;;;;;4964415;28;20575;-54
2023/12/21 03:35:35;;;;;;;8.10;4.83;;;;;;;;;;4962583;28;20569;-54
2023/12/21 03:38:01;;;;;;;6.40;4.30;;;;;;;;;;4964198;28;20285;-54
2023/12/21 03:40:27;;;;;;;4.93;4.00;;;;;;;;;;4960934;28;20199;-54
2023/12/21 03:42:53;;;;;;;4.70;3.73;;;;;;;;;;4962576;28;20227;-53
2023/12/21 03:45:19;;;;;;;4.07;3.67;;;;;;;;;;4962601;28;20249;-54
2023/12/21 03:47:48;;;;;;;4.27;3.60;;;;;;;;;;4962456;28;20195;-54
2023/12/21 03:50:14;;;;;;;3.40;3.07;;;;;;;;;;4965731;28;20203;-54
2023/12/21 03:52:40;;;;;;;3.20;2.90;;;;;;;;;;4960968;28;20258;-54
2023/12/21 03:55:06;;;;;;;3.27;2.93;;;;;;;;;;4960648;28;20211;-54
2023/12/21 03:57:32;;;;;;;5.17;3.50;;;;;;;;;;4962332;28;20237;-54
2023/12/21 04:00:00;;;;;;;3.30;3.00;;;;;;;;;;4960652;28;20199;-54
2023/12/21 04:02:26;;;;;;;4.00;3.67;;;;;;;;;;4962267;28;20699;-54
2023/12/21 04:04:54;;;;;;;3.53;3.03;;;;;;;;;;4962266;28;20227;-54
2023/12/21 04:07:20;;;;;;;3.40;3.10;;;;;;;;;;4962085;28;20203;-54
2023/12/21 04:09:46;;;;;;;3.70;3.40;;;;;;;;;;4962000;28;20199;-54
2023/12/21 04:12:12;;;;;;;3.73;3.43;;;;;;;;;;4960593;28;20207;-54
2023/12/21 04:14:38;;;;;;;2.93;2.73;;;;;;;;;;4960540;28;20625;-54
2023/12/21 04:17:04;;;;;;;3.17;2.87;;;;;;;;;;4960283;28;20238;-54
2023/12/21 04:19:30;;;;;;;3.17;2.90;;;;;;;;;;4960178;28;20233;-54
2023/12/21 04:21:57;;;;;;;3.30;3.00;;;;;;;;;;4960172;28;20211;-54
2023/12/21 04:24:23;;;;;;;4.93;3.13;;;;;;;;;;4958676;28;20210;-54
2023/12/21 04:26:49;;;;;;;3.63;3.17;;;;;;;;;;4960167;28;20195;-54
2023/12/21 04:29:15;;;;;;;3.27;2.93;;;;;;;;;;4959654;28;20239;-53
2023/12/21 04:31:44;;;;;;;3.40;3.10;;;;;;;;;;4960923;28;20199;-53
2023/12/21 04:34:10;;;;;;;3.37;3.07;;;;;;;;;;4961717;28;20250;-53
2023/12/21 04:36:36;;;;;;;3.30;3.00;;;;;;;;;;4959618;28;20207;-53
2023/12/21 04:39:04;;;;;;;3.30;3.00;;;;;;;;;;4959695;28;20720;-53
2023/12/21 04:41:29;;;;;;;3.70;3.40;;;;;;;;;;4961480;28;20217;-53
2023/12/21 04:43:55;;;;;;;4.43;3.23;;;;;;;;;;4960184;28;20207;-53
2023/12/21 04:46:22;;;;;;;3.50;3.20;;;;;;;;;;4961683;28;20653;-53
2023/12/21 04:48:48;;;;;;;4.00;3.53;;;;;;;;;;4959984;28;20218;-53
2023/12/21 04:51:15;;;;;;;3.50;3.20;;;;;;;;;;4959911;28;20644;-53
2023/12/21 04:53:42;;;;;;;3.50;3.20;;;;;;;;;;4960017;28;20198;-53
2023/12/21 04:56:09;;;;;;;3.63;3.30;;;;;;;;;;4959782;28;20214;-53
2023/12/21 04:58:35;;;;;;;3.50;3.20;;;;;;;;;;4972945;28;20238;-53
2023/12/21 05:01:01;;;;;;;2.90;2.70;;;;;;;;;;4973105;28;20207;-53
2023/12/21 05:03:27;;;;;;;3.57;2.87;;;;;;;;;;4972982;28;20661;-53
2023/12/21 05:05:53;;;;;;;2.70;2.50;;;;;;;;;;4973174;28;20207;-53
2023/12/21 05:08:19;;;;;;;3.80;2.40;;;;;;;;;;4972827;28;20214;-53
2023/12/21 05:10:45;;;;;;;2.53;2.33;;;;;;;;;;4973044;28;20285;-53
2023/12/21 05:13:13;;;;;;;2.80;2.30;;;;;;;;;;4969663;28;20199;-53
2023/12/21 05:15:39;;;;;;;3.30;2.70;;;;;;;;;;4961016;28;20700;-53
2023/12/21 05:18:05;;;;;;;2.83;2.20;;;;;;;;;;4959192;28;20228;-53
2023/12/21 05:20:31;;;;;;;2.67;2.40;;;;;;;;;;4959363;28;20206;-54
2023/12/21 05:22:57;;;;;;;2.83;2.57;;;;;;;;;;4961000;28;20230;-53
2023/12/21 05:25:24;;;;;;;3.03;2.73;;;;;;;;;;4960983;28;20195;-54
2023/12/21 05:27:50;;;;;;;2.50;2.30;;;;;;;;;;4960675;28;20793;-53
2023/12/21 05:30:18;;;;;;;2.60;2.40;;;;;;;;;;4959178;28;20285;-53
2023/12/21 05:32:44;;;;;;;3.87;2.67;;;;;;;;;;4959128;28;20207;-54
2023/12/21 05:35:10;;;;;;;3.17;2.83;;;;;;;;;;4961047;28;20202;-53
2023/12/21 05:37:36;;;;;;;2.97;2.60;;;;;;;;;;4959055;28;20285;-53
2023/12/21 05:40:02;;;;;;;2.70;2.50;;;;;;;;;;4959156;28;20261;-53
2023/12/21 05:42:28;;;;;;;2.60;2.40;;;;;;;;;;4961361;28;20230;-53
2023/12/21 05:44:54;;;;;;;2.80;2.60;;;;;;;;;;4963136;28;20207;-53
2023/12/21 05:47:22;;;;;;;2.97;2.67;;;;;;;;;;4962781;28;20194;-53
2023/12/21 05:49:48;;;;;;;2.97;2.67;;;;;;;;;;4964604;28;20455;-54
2023/12/21 05:52:14;;;;;;;3.30;2.70;;;;;;;;;;4962827;28;20208;-53
2023/12/21 05:54:40;;;;;;;3.27;2.83;;;;;;;;;;4962324;28;20195;-53
2023/12/21 05:57:05;;;;;;;3.40;3.00;;;;;;;;;;4962659;28;20237;-54
2023/12/21 05:59:31;;;;;;;3.57;3.10;;;;;;;;;;4964383;28;20207;-53
2023/12/21 06:01:59;;;;;;;3.30;3.00;;;;;;;;;;4962756;28;20201;-53
2023/12/21 06:04:26;;;;;;;3.20;2.90;;;;;;;;;;4962992;28;20203;-53
2023/12/21 06:06:52;;;;;;;2.80;2.60;;;;;;;;;;4962498;28;20218;-53
2023/12/21 06:09:18;;;;;;;3.27;2.70;;;;;;;;;;4964217;28;20210;-53
2023/12/21 06:11:44;;;;;;;4.17;3.77;;;;;;;;;;4964237;28;20616;-53
2023/12/21 06:14:10;;;;;;;4.63;3.47;;;;;;;;;;4964318;28;20242;-53
2023/12/21 06:16:36;;;;;;;4.73;3.80;;;;;;;;;;4961978;28;20222;-53
2023/12/21 06:19:09;;;;;;;5.33;3.17;;;;;;;;;;4962066;28;20241;-54
2023/12/21 06:21:37;;;;;;;3.50;2.97;;;;;;;;;;4961675;28;20356;-53
2023/12/21 06:24:04;;;;;;;2.60;2.40;;;;;;;;;;4961970;28;20250;-53
2023/12/21 06:26:29;;;;;;;2.80;2.40;;;;;;;;;;4961953;28;20214;-54
2023/12/21 06:28:55;;;;;;;2.40;2.20;;;;;;;;;;4961881;28;20230;-54
2023/12/21 06:31:23;;;;;;;4.37;2.40;;;;;;;;;;4963669;28;20725;-53
2023/12/21 06:33:49;;;;;;;2.30;2.10;;;;;;;;;;4961971;28;20213;-53
2023/12/21 06:36:15;;;;;;;2.53;2.10;;;;;;;;;;4961689;28;20203;-53
2023/12/21 06:38:42;;;;;;;2.33;2.13;;;;;;;;;;4963722;28;20225;-53
2023/12/21 06:41:08;;;;;;;4.07;2.20;;;;;;;;;;4963675;28;20202;-53
2023/12/21 06:43:34;;;;;;;2.90;2.30;;;;;;;;;;4961720;28;20203;-53
2023/12/21 06:46:02;;;;;;;2.80;2.60;;;;;;;;;;4961786;28;20209;-53
2023/12/21 06:48:28;;;;;;;2.57;2.37;;;;;;;;;;4963512;28;20254;-53
2023/12/21 06:50:54;;;;;;;2.60;2.40;;;;;;;;;;4961855;28;20215;-53
2023/12/21 06:53:20;;;;;;;2.70;2.50;;;;;;;;;;4960468;28;20202;-52
2023/12/21 06:55:47;;;;;;;2.13;1.97;;;;;;;;;;4963539;28;20266;-52
2023/12/21 06:58:13;;;;;;;2.30;2.10;;;;;;;;;;4961477;28;20226;-53
2023/12/21 07:00:39;;;;;;;2.03;1.90;;;;;;;;;;4961707;28;20584;-53
2023/12/21 07:03:05;;;;;;;2.30;1.83;;;;;;;;;;4963172;28;20211;-53
2023/12/21 07:05:31;;;;;;;2.00;1.90;;;;;;;;;;4961393;28;20199;-53
2023/12/21 07:07:57;;;;;;;1.87;1.77;;;;;;;;;;4963222;28;20262;-52
2023/12/21 07:10:23;;;;;;;1.60;1.50;;;;;;;;;;4961337;28;20207;-53
2023/12/21 07:12:50;;;;;;;2.23;2.03;;;;;;;;;;4961257;28;20948;-53
2023/12/21 07:15:16;;;;;;;1.80;1.70;;;;;;;;;;4963062;28;20205;-53
2023/12/21 07:17:42;;;;;;;2.10;1.70;;;;;;;;;;4962745;28;20314;-53
2023/12/21 07:20:09;;;;;;;1.70;1.60;;;;;;;;;;4961250;28;20277;-52
2023/12/21 07:22:35;;;;;;;1.80;1.70;;;;;;;;;;4961199;28;20643;-53
2023/12/21 07:25:01;;;;;;;1.60;1.50;;;;;;;;;;4961210;28;20662;-53
2023/12/21 07:27:27;;;;;;;1.90;1.60;;;;;;;;;;4962677;28;20239;-52
2023/12/21 07:29:54;;;;;;;1.30;1.20;;;;;;;;;;4961104;28;20254;-52
2023/12/21 07:32:20;;;;;;;1.60;1.50;;;;;;;;;;4960867;28;20221;-53
2023/12/21 07:34:46;;;;;;;1.60;1.50;;;;;;;;;;4960777;28;20549;-53
2023/12/21 07:37:16;;;;;;;1.40;1.30;;;;;;;;;;4961042;28;20237;-53
2023/12/21 07:39:42;;;;;;;1.50;1.40;;;;;;;;;;4960705;28;20662;-53
2023/12/21 07:42:08;;;;;;;1.80;1.70;;;;;;;;;;4960871;28;20282;-53
2023/12/21 07:44:35;;;;;;;1.40;1.30;;;;;;;;;;4962413;28;20310;-53
2023/12/21 07:47:03;;;;;;;1.70;1.40;;;;;;;;;;4962317;28;20593;-52
2023/12/21 07:49:29;;;;;;;1.30;1.20;;;;;;;;;;4962453;28;20219;-51
2023/12/21 07:51:55;;;;;;;1.60;1.10;;;;;;;;;;4960756;28;20207;-50
2023/12/21 07:54:21;;;;;;;1.33;1.23;;;;;;;;;;4962311;28;20211;-49
2023/12/21 07:56:47;;;;;;;1.30;1.20;;;;;;;;;;4962159;28;20225;-48
2023/12/21 07:59:13;;;;;;;1.00;1.00;;;;;;;;;;4960457;28;20325;-52
2023/12/21 08:01:39;;;;;;;11.07;5.67;;;;;;;;;;4962216;28;20565;-49
2023/12/21 08:04:08;;;;;;;12.60;6.77;;;;;;;;;;4961839;28;20199;-50
2023/12/21 08:06:35;;;;;;;1.40;1.30;;;;;;;;;;4959594;28;20214;-51
2023/12/21 08:09:01;;;;;;;1.87;1.70;;;;;;;;;;4960321;28;20725;-50
2023/12/21 08:11:27;;;;;;;1.20;1.10;;;;;;;;;;4962194;28;20253;-50
2023/12/21 08:13:53;;;;;;;2.53;2.33;;;;;;;;;;4961800;28;20198;-50
2023/12/21 08:16:19;;;;;;;1.63;1.53;;;;;;;;;;4959748;28;20286;-49
2023/12/21 08:18:45;;;;;;;15.43;11.90;;;;;;;;;;4961637;28;20370;-50
2023/12/21 08:21:12;;;;;;;2.60;2.30;;;;;;;;;;4961933;28;20199;-50
2023/12/21 08:23:39;;;;;;;1.60;1.50;;;;;;;;;;4962626;28;20262;-49
2023/12/21 08:26:05;;;;;;;15.63;10.63;;;;;;;;;;4959970;28;20199;-50
2023/12/21 08:28:32;;;;;;;40.50;25.87;;;;;;;;;;4962196;28;20243;-50
2023/12/21 08:30:58;;;;;;;7.73;5.00;;;;;;;;;;4959155;28;20202;-50
2023/12/21 08:33:24;;;;;;;111.63;65.50;;;;;;;;;;4961366;28;21241;-50
2023/12/21 08:35:50;;;;;;;3.47;2.50;;;;;;;;;;4958507;28;20199;-50
2023/12/21 08:38:17;;;;;;;1.50;1.40;;;;;;;;;;4961454;28;21154;-50
2023/12/21 08:40:43;;;;;;;2.13;2.03;;;;;;;;;;4959721;28;20581;-50
2023/12/21 08:43:09;;;;;;;3.17;1.77;;;;;;;;;;4959946;28;20545;-50
2023/12/21 08:45:35;;;;;;;2.60;1.50;;;;;;;;;;4959591;28;20285;-50
2023/12/21 08:48:01;;;;;;;18.47;16.57;;;;;;;;;;4959916;28;20610;-50
2023/12/21 08:50:27;;;;;;;7.47;5.77;;;;;;;;;;4959605;28;20246;-50
2023/12/21 08:52:53;;;;;;;2.17;1.80;;;;;;;;;;4961321;28;20199;-51
2023/12/21 08:55:20;;;;;;;3.10;2.10;;;;;;;;;;4959943;28;20206;-49
2023/12/21 08:57:46;;;;;;;1.70;1.60;;;;;;;;;;4961114;28;20452;-50
2023/12/21 09:00:13;;;;;;;1.70;1.60;;;;;;;;;;4953255;28;20196;-50
2023/12/21 09:02:39;;;;;;;2.03;1.90;;;;;;;;;;4952153;28;20207;-50
2023/12/21 09:05:06;;;;;;;2.30;2.20;;;;;;;;;;4949118;28;20250;-50
2023/12/21 09:07:32;;;;;;;1.60;1.50;;;;;;;;;;4950372;28;20198;-49
2023/12/21 09:10:00;;;;;;;1.50;1.40;;;;;;;;;;4952268;28;20225;-50
2023/12/21 09:12:27;;;;;;;1.50;1.40;;;;;;;;;;4949037;28;20188;-49
2023/12/21 09:14:53;;;;;;;1.67;1.57;;;;;;;;;;4948675;28;20626;-49
2023/12/21 09:17:19;;;;;;;1.83;1.30;;;;;;;;;;4954397;28;20218;-49
2023/12/21 09:19:45;;;;;;;2.70;1.50;;;;;;;;;;4958458;28;20282;-51
2023/12/21 09:22:11;;;;;;;1.27;1.20;;;;;;;;;;4957037;28;20219;-51
2023/12/21 09:24:38;;;;;;;1.90;1.20;;;;;;;;;;4958236;28;20202;-51
2023/12/21 09:27:05;;;;;;;1.47;1.17;;;;;;;;;;4956459;28;20682;-52
2023/12/21 09:29:32;;;;;;;3.00;2.80;;;;;;;;;;4955144;28;20222;-51
2023/12/21 09:31:59;;;;;;;1.90;1.60;;;;;;;;;;4954003;28;20215;-52
2023/12/21 09:34:25;;;;;;;1.53;1.27;;;;;;;;;;4946590;28;20607;-52
2023/12/21 09:36:53;;;;;;;1.80;1.70;;;;;;;;;;4946339;28;20681;-51
2023/12/21 09:39:19;;;;;;;1.53;1.20;;;;;;;;;;4947929;28;20536;-53
2023/12/21 09:41:45;;;;;;;1.40;1.27;;;;;;;;;;4946297;28;20266;-48
2023/12/21 09:44:16;;;;;;;1.23;1.13;;;;;;;;;;4947811;28;20199;-46
2023/12/21 09:46:44;;;;;;;1.47;1.10;;;;;;;;;;4946244;28;20254;-51
2023/12/21 09:49:10;;;;;;;1.00;1.00;;;;;;;;;;4948297;28;20227;-50
2023/12/21 09:51:37;;;;;;;1.33;1.10;;;;;;;;;;4946072;28;20213;-51
2023/12/21 09:54:06;;;;;;;1.47;0.90;;;;;;;;;;4946420;28;20567;-48
2023/12/21 09:56:32;;;;;;;1.17;1.07;;;;;;;;;;4946181;28;20196;-49
2023/12/21 09:58:59;;;;;;;1.20;1.10;;;;;;;;;;4946426;28;21069;-50
2023/12/21 10:01:25;;;;;;;0.87;0.87;;;;;;;;;;4946153;28;20298;-52
2023/12/21 10:03:52;;;;;;;1.47;1.20;;;;;;;;;;4946097;28;20226;-51
2023/12/21 10:06:18;;;;;;;3.97;1.43;;;;;;;;;;4946183;28;20222;-52
2023/12/21 10:08:44;;;;;;;2.47;1.00;;;;;;;;;;4946530;28;20290;-51
2023/12/21 10:11:11;;;;;;;1.30;1.10;;;;;;;;;;4947865;28;20203;-51
2023/12/21 10:13:37;;;;;;;1.87;1.40;;;;;;;;;;4945952;28;20247;-52
2023/12/21 10:16:03;;;;;;;2.07;1.43;;;;;;;;;;4947550;28;20753;-51
2023/12/21 10:18:30;;;;;;;1.60;1.50;;;;;;;;;;4945908;28;20238;-51
2023/12/21 10:20:57;;;;;;;2.30;1.20;;;;;;;;;;4947746;28;20199;-50
2023/12/21 10:23:24;;;;;;;1.30;1.20;;;;;;;;;;4945813;28;20234;-50
2023/12/21 10:25:52;;;;;;;1.40;1.30;;;;;;;;;;4945742;28;20830;-48
2023/12/21 10:28:21;;;;;;;1.73;1.23;;;;;;;;;;4943932;28;20601;-48
2023/12/21 10:30:52;;;;;;;1.50;1.10;;;;;;;;;;4942824;28;20203;-53
2023/12/21 10:33:18;;;;;;;1.87;1.10;;;;;;;;;;4964235;28;20488;-55
2023/12/21 10:35:44;;;;;;;1.37;1.23;;;;;;;;;;4975092;28;20207;-54
2023/12/21 10:38:11;;;;;;;1.80;1.70;;;;;;;;;;4975440;28;20237;-55
2023/12/21 10:40:37;;;;;;;0.97;0.97;;;;;;;;;;4975254;28;20210;-55
2023/12/21 10:43:03;;;;;;;1.30;1.20;;;;;;;;;;4975358;28;20199;-55
2023/12/21 10:45:29;;;;;;;1.30;1.20;;;;;;;;;;4989799;28;20198;-54
2023/12/21 10:47:57;;;;;;;1.23;1.10;;;;;;;;;;4994766;28;20664;-53
2023/12/21 10:50:24;;;;;;;0.83;0.83;;;;;;;;;;4994655;28;20202;-54
2023/12/21 10:52:50;;;;;;;2.00;1.70;;;;;;;;;;4994818;28;20218;-54
2023/12/21 10:55:18;;;;;;;1.17;1.10;;;;;;;;;;4994869;28;20198;-54
2023/12/21 10:57:45;;;;;;;2.20;1.70;;;;;;;;;;4994613;28;20596;-53
2023/12/21 11:00:17;;;;;;;5.67;4.67;;;;;;;;;;4994880;28;20224;-53
2023/12/21 11:02:45;;;;;;;4.40;3.40;;;;;;;;;;4994673;28;20201;-54
2023/12/21 11:05:11;;;;;;;1.27;1.17;;;;;;;;;;4994715;28;20214;-53
2023/12/21 11:07:37;;;;;;;15.23;13.60;;;;;;;;;;4992866;28;20201;-53
2023/12/21 11:10:04;;;;;;;2.30;1.97;;;;;;;;;;4994751;28;20202;-54
2023/12/21 11:12:31;;;;;;;1.40;1.30;;;;;;;;;;4994523;28;20660;-54
2023/12/21 11:14:57;;;;;;;1.80;1.60;;;;;;;;;;4994619;28;20203;-54
2023/12/21 11:17:24;;;;;;;14.27;12.83;;;;;;;;;;4992652;28;20206;-54
2023/12/21 11:19:51;;;;;;;7.30;6.60;;;;;;;;;;4994379;28;20206;-49
2023/12/21 11:22:17;;;;;;;1.20;1.10;;;;;;;;;;4989250;28;20228;-48
2023/12/21 11:24:44;;;;;;;8.13;6.93;;;;;;;;;;4992530;28;20664;-48
2023/12/21 11:27:11;;;;;;;5.40;4.90;;;;;;;;;;4985654;28;20226;-48
2023/12/21 11:29:40;;;;;;;4.40;3.80;;;;;;;;;;4989009;28;20574;-48
2023/12/21 11:32:06;;;;;;;1.73;1.63;;;;;;;;;;4989050;28;20285;-47
2023/12/21 11:34:36;;;;;;;0.97;0.97;;;;;;;;;;4985396;28;20194;-47
2023/12/21 11:37:24;;;;;;;8.17;6.30;;;;;;;;;;4985394;28;20198;-47
2023/12/21 11:39:52;;;;;;;7.03;5.57;;;;;;;;;;4982842;28;20210;-47
2023/12/21 11:42:19;;;;;;;4.97;4.13;;;;;;;;;;4983676;28;20232;-47
2023/12/21 11:44:52;;;;;;;3.10;2.17;;;;;;;;;;4981988;28;20206;-47
2023/12/21 11:47:18;;;;;;;11.83;9.20;;;;;;;;;;4983456;28;20206;-47
2023/12/21 11:49:44;;;;;;;4.80;4.10;;;;;;;;;;4983426;28;20209;-47
2023/12/21 11:52:11;;;;;;;1.10;1.00;;;;;;;;;;4985355;28;20582;-47
2023/12/21 11:54:36;;;;;;;1.13;1.03;;;;;;;;;;4983439;28;20205;-47
2023/12/21 11:57:13;;;;;;;1.33;0.83;;;;;;;;;;4983354;28;20293;-47
2023/12/21 11:59:39;;;;;;;1.80;0.83;;;;;;;;;;4985061;28;20261;-48
2023/12/21 12:02:07;;;;;;;1.53;1.43;;;;;;;;;;4983193;28;20202;-48
2023/12/21 12:04:33;;;;;;;5.57;4.00;;;;;;;;;;4984973;28;20209;-48
2023/12/21 12:07:00;;;;;;;1.90;0.87;;;;;;;;;;4983241;28;20584;-47
2023/12/21 12:09:27;;;;;;;1.43;1.20;;;;;;;;;;4984794;28;20194;-47
2023/12/21 12:11:53;;;;;;;3.37;1.97;;;;;;;;;;4984414;28;20208;-47
2023/12/21 12:14:19;;;;;;;6.90;5.67;;;;;;;;;;4983034;28;20190;-47
2023/12/21 12:16:46;;;;;;;3.50;2.57;;;;;;;;;;4982955;28;20256;-47
2023/12/21 12:19:13;;;;;;;3.70;1.90;;;;;;;;;;4984544;28;20679;-47
2023/12/21 12:21:40;;;;;;;3.13;1.63;;;;;;;;;;4983321;28;20202;-47
2023/12/21 12:24:06;;;;;;;4.07;3.63;;;;;;;;;;4984842;28;20226;-47
2023/12/21 12:26:34;;;;;;;5.20;1.83;;;;;;;;;;4979422;28;20205;-47
2023/12/21 12:29:00;;;;;;;4.80;3.07;;;;;;;;;;4980937;28;20571;-47
2023/12/21 12:31:26;;;;;;;9.70;3.10;;;;;;;;;;4982780;28;20214;-49
2023/12/21 12:33:52;;;;;;;3.43;1.30;;;;;;;;;;4980895;28;20249;-47
2023/12/21 12:36:20;;;;;;;4.70;3.30;;;;;;;;;;4984375;28;20190;-47
2023/12/21 12:38:46;;;;;;;3.50;3.20;;;;;;;;;;4982506;28;21065;-46
2023/12/21 12:41:12;;;;;;;1.20;1.10;;;;;;;;;;4980957;28;20687;-47
2023/12/21 12:43:39;;;;;;;2.83;2.33;;;;;;;;;;4982632;28;20674;-46
2023/12/21 12:46:05;;;;;;;3.70;1.80;;;;;;;;;;4982406;28;20262;-48
2023/12/21 12:48:31;;;;;;;3.30;1.67;;;;;;;;;;4980703;28;20238;-47
2023/12/21 12:50:58;;;;;;;1.97;1.03;;;;;;;;;;4981830;28;20206;-47
2023/12/21 12:53:25;;;;;;;3.20;1.20;;;;;;;;;;4980808;28;20233;-47
2023/12/21 12:55:55;;;;;;;5.17;3.10;;;;;;;;;;4980568;28;20640;-47
2023/12/21 12:58:22;;;;;;;6.27;1.50;;;;;;;;;;4980597;28;20241;-47
2023/12/21 13:00:48;;;;;;;4.60;2.23;;;;;;;;;;4980557;28;20202;-47
2023/12/21 13:03:14;;;;;;;4.53;2.57;;;;;;;;;;4980537;28;20208;-47
2023/12/21 13:05:40;;;;;;;4.03;1.90;;;;;;;;;;4980308;28;20699;-48
2023/12/21 13:08:07;;;;;;;4.00;2.87;;;;;;;;;;4982327;28;20302;-47
2023/12/21 13:10:34;;;;;;;6.23;1.80;;;;;;;;;;4980481;28;20273;-47
2023/12/21 13:13:00;;;;;;;7.77;1.63;;;;;;;;;;4980408;28;20218;-47
2023/12/21 13:15:26;;;;;;;6.77;1.87;;;;;;;;;;4982303;28;20198;-47
2023/12/21 13:17:54;;;;;;;7.23;2.23;;;;;;;;;;4980303;28;20229;-47
2023/12/21 13:20:20;;;;;;;5.77;2.00;;;;;;;;;;4982222;28;20202;-47
2023/12/21 13:22:46;;;;;;;5.00;1.80;;;;;;;;;;4978510;28;20222;-47
2023/12/21 13:25:15;;;;;;;6.73;2.10;;;;;;;;;;4982016;28;20233;-47
2023/12/21 13:27:43;;;;;;;3.60;1.30;;;;;;;;;;4978141;28;20234;-47
2023/12/21 13:30:12;;;;;;;4.40;1.70;;;;;;;;;;4980384;28;20743;-47
2023/12/21 13:32:38;;;;;;;3.37;1.40;;;;;;;;;;4978639;28;20206;-47
2023/12/21 13:35:05;;;;;;;2.03;1.30;;;;;;;;;;4983641;28;20290;-46
2023/12/21 13:37:31;;;;;;;3.27;1.10;;;;;;;;;;4981834;28;20191;-47
2023/12/21 13:39:57;;;;;;;1.90;1.40;;;;;;;;;;4978504;28;20218;-47
2023/12/21 13:42:23;;;;;;;1.90;1.27;;;;;;;;;;4981913;28;20198;-47
2023/12/21 13:44:50;;;;;;;3.97;1.67;;;;;;;;;;4981833;28;20186;-47
2023/12/21 13:47:17;;;;;;;1.80;1.37;;;;;;;;;;4978757;28;20653;-46
2023/12/21 13:49:43;;;;;;;3.60;1.37;;;;;;;;;;4982900;28;20205;-46
2023/12/21 13:52:09;;;;;;;4.13;1.50;;;;;;;;;;4980081;28;20256;-47
2023/12/21 13:54:35;;;;;;;3.60;1.63;;;;;;;;;;4981544;28;20190;-48
2023/12/21 13:57:01;;;;;;;4.77;2.03;;;;;;;;;;4985163;28;20202;-47
2023/12/21 13:59:27;;;;;;;61.47;38.17;;;;;;;;;;4953377;28;20318;-46
2023/12/21 14:01:55;;;;;;;133.50;76.17;;;;;;;;;;4952952;28;20278;-46
2023/12/21 14:04:21;;;;;;;145.43;84.57;;;;;;;;;;4956468;28;20200;-46
2023/12/21 14:06:47;;;;;;;83.40;48.23;;;;;;;;;;4956686;29;20567;-46
2023/12/21 14:09:13;;;;;;;6.53;5.60;;;;;;;;;;4956898;28;20196;-46
2023/12/21 14:11:39;;;;;;;5.17;1.80;;;;;;;;;;4956550;28;20696;-46
2023/12/21 14:14:05;;;;;;;5.67;4.77;;;;;;;;;;4956734;28;20200;-46
2023/12/21 14:16:31;;;;;;;3.50;1.77;;;;;;;;;;4956438;28;20322;-46
2023/12/21 14:18:59;;;;;;;6.93;6.20;;;;;;;;;;4956489;28;20318;-46
2023/12/21 14:21:25;;;;;;;2.67;1.50;;;;;;;;;;4956630;28;20694;-46
2023/12/21 14:23:51;;;;;;;5.70;1.83;;;;;;;;;;4956325;28;20227;-46
2023/12/21 14:26:18;;;;;;;2.90;1.30;;;;;;;;;;4956514;28;20271;-46
2023/12/21 14:28:44;;;;;;;5.00;1.77;;;;;;;;;;4956194;28;20242;-46
2023/12/21 14:31:10;;;;;;;5.33;1.80;;;;;;;;;;4956476;28;20204;-46
2023/12/21 14:33:36;;;;;;;7.73;1.90;;;;;;;;;;4956322;28;20204;-46
2023/12/21 14:36:04;;;;;;;6.97;1.70;;;;;;;;;;4956223;28;20543;-46
2023/12/21 14:38:30;;;;;;;4.67;2.00;;;;;;;;;;4955799;28;20227;-46
2023/12/21 14:40:56;;;;;;;7.33;2.87;;;;;;;;;;4955763;28;20202;-46